Latest Weather Observations for Laverton

IDW60801

Issued at 4:02 pm WST Sunday 1 May 2016 (issued every 30 minutes, with the page automatically refreshed every 10 minutes)

About weather observations | Map of weather stations | Latest weather observations for WA | Other Formats
Station Details ID: 012305 Name: LAVERTON AERO Lat: -28.61 Lon: 122.42 Height: 464.3 m
Data from the previous 72 hours. | See also: Recent months at Laverton
Date/Time
WST
Temp
°C
App
Temp
°C
Dew
Point
Rel
Hum
%
Delta-T
°C
Wind Press
QNH
hPa
Press
MSL
hPa
Rain
since 9 am
mm
Dir
 
Spd
km/h
Gust
km/h
Spd
kts
Gust
kts
01/04:00pm 23.0 20.1 4.5 30 9.3 W 9 17 5 9 1018.9 1017.8 0.0
01/03:30pm 22.5 20.0 4.5 31 9.0 SW 7 15 4 8 1018.8 1017.7 0.0
01/03:00pm 22.8 19.2 4.8 31 9.1 W 13 20 7 11 1018.8 1017.7 0.0
01/02:30pm 22.3 19.9 4.4 31 9.0 W 6 11 3 6 1018.6 1017.6 0.0
01/02:00pm 22.5 20.1 4.5 31 9.0 ESE 6 9 3 5 1018.5 1017.5 0.0
01/01:30pm 22.1 19.8 4.7 32 8.8 SSW 6 13 3 7 1018.9 1017.8 0.0
01/01:00pm 21.4 18.1 4.5 33 8.4 S 11 15 6 8 1019.3 1018.2 0.0
01/12:30pm 20.9 17.7 4.9 35 8.0 SSW 11 15 6 8 1019.8 1018.8 0.0
01/12:00pm 20.4 18.0 4.4 35 7.9 S 6 13 3 7 1020.4 1019.4 0.0
01/11:30am 20.7 17.9 5.1 36 7.8 ENE 9 15 5 8 1020.8 1019.8 0.0
01/11:00am 19.8 16.2 5.1 38 7.3 E 13 20 7 11 1021.4 1020.4 0.0
01/10:30am 19.0 15.0 4.7 39 7.1 NE 15 20 8 11 1021.8 1020.8 0.0
01/10:00am 18.7 13.7 4.8 40 6.8 NE 20 28 11 15 1021.8 1020.8 0.0
01/09:30am 17.6 12.7 4.9 43 6.2 NE 20 28 11 15 1022.2 1021.2 0.0
01/09:00am 16.2 10.3 3.9 44 5.8 NE 24 37 13 20 1022.2 1021.2 0.0
01/08:30am 14.8 8.1 3.6 47 5.2 ENE 28 35 15 19 1022.0 1021.0 0.0
01/08:00am 13.8 7.6 4.1 52 4.5 ENE 26 33 14 18 1021.8 1020.8 0.0
01/07:30am 12.6 7.1 3.8 55 4.1 ENE 22 30 12 16 1021.7 1019.8 0.0
01/07:00am 11.4 6.2 3.4 58 3.6 ENE 20 28 11 15 1021.3 1019.4 0.0
01/06:30am 10.4 5.1 3.2 61 3.2 ENE 20 26 11 14 1021.2 1019.3 0.0
01/06:00am 10.0 4.9 2.8 61 3.2 E 19 22 10 12 1021.1 1019.2 0.0
01/05:30am 10.3 5.2 2.9 60 3.3 E 19 22 10 12 1020.9 1019.1 0.0
01/05:00am 10.3 5.5 2.7 59 3.3 E 17 22 9 12 1020.8 1019.0 0.0
01/04:30am 10.4 5.2 2.5 58 3.5 E 19 20 10 11 1020.6 1018.7 0.0
01/04:00am 10.8 5.4 2.4 56 3.7 E 20 24 11 13 1020.5 1018.6 0.0
01/03:30am 10.9 6.1 2.5 56 3.7 E 17 20 9 11 1020.4 1018.5 0.0
01/03:00am 10.7 6.2 2.3 56 3.7 E 15 19 8 10 1020.4 1018.5 0.0
01/02:30am 11.2 6.8 2.5 55 3.9 E 15 17 8 9 1020.3 1018.4 0.0
01/02:00am 11.5 6.7 2.8 55 3.9 E 17 19 9 10 1020.5 1018.6 0.0
01/01:30am 11.5 7.5 3.0 56 3.8 E 13 19 7 10 1020.5 1018.6 0.0
01/01:00am 12.6 8.6 2.7 51 4.4 ESE 13 19 7 10 1020.5 1018.6 0.0
01/12:30am 12.3 8.8 3.5 55 4.0 ESE 11 11 6 6 1020.4 1018.5 0.0
01/12:00am 12.9 9.4 3.6 53 4.3 ESE 11 15 6 8 1020.4 1018.5 0.0
 
Date/Time
WST
Temp
°C
App
Temp
°C
Dew
Point
Rel
Hum
%
Delta-T
°C
Wind Press
QNH
hPa
Press
MSL
hPa
Rain
since 9 am
mm
Dir
 
Spd
km/h
Gust
km/h
Spd
kts
Gust
kts
30/11:30pm 11.5 8.5 4.3 61 3.3 SE 9 11 5 6 1020.5 1018.6 0.0
30/11:00pm 12.0 9.0 4.2 59 3.6 SE 9 11 5 6 1020.7 1018.8 0.0
30/10:30pm 12.4 9.4 4.1 57 3.8 SE 9 11 5 6 1020.8 1019.0 0.0
30/10:00pm 12.9 9.6 4.3 56 4.0 SE 11 11 6 6 1020.7 1018.8 0.0
30/09:30pm 13.8 10.5 4.4 53 4.4 SSE 11 13 6 7 1020.7 1018.8 0.0
30/09:00pm 14.0 11.1 4.9 54 4.3 SSE 9 9 5 5 1020.6 1018.7 0.0
30/08:30pm 14.8 11.9 4.8 51 4.8 SSE 9 11 5 6 1020.5 1018.6 0.0
30/08:00pm 15.5 12.6 4.8 49 5.1 SSE 9 11 5 6 1020.2 1018.3 0.0
30/07:30pm 16.5 13.6 4.9 46 5.6 SSE 9 9 5 5 1020.0 1018.1 0.0
30/07:00pm 17.4 13.8 5.0 44 6.1 SSE 13 15 7 8 1019.6 1017.7 0.0
30/06:30pm 17.8 15.1 5.4 44 6.2 SSE 9 11 5 6 1019.3 1017.4 0.0
30/06:00pm 19.0 16.3 5.5 41 6.8 SSW 9 11 5 6 1018.9 1016.9 0.0
30/05:30pm 19.7 16.6 5.4 39 7.2 SW 11 15 6 8 1018.4 1016.5 0.0
30/05:00pm 20.5 16.6 5.3 37 7.6 SW 15 20 8 11 1018.1 1016.2 0.0
30/04:30pm 20.7 17.2 5.5 37 7.7 SSW 13 20 7 11 1017.9 1016.0 0.0
30/04:00pm 20.7 17.4 6.3 39 7.4 SSW 13 22 7 12 1017.7 1015.8 0.0
30/03:30pm 20.7 17.1 6.6 40 7.3 SSW 15 24 8 13 1017.5 1015.6 0.0
30/03:00pm 20.9 17.8 7.2 41 7.2 SSW 13 20 7 11 1017.4 1015.5 0.0
30/02:30pm 21.0 17.5 7.3 41 7.2 WSW 15 26 8 14 1017.4 1015.5 0.0
30/02:00pm 21.1 18.1 7.7 42 7.1 SW 13 20 7 11 1017.4 1015.5 0.0
30/01:30pm 20.1 15.8 7.8 45 6.5 SSW 20 28 11 15 1017.6 1015.7 0.0
30/01:00pm 20.0 16.4 8.4 47 6.2 WSW 17 26 9 14 1017.9 1016.0 0.0
30/12:30pm 19.8 16.7 8.8 49 5.9 SW 15 22 8 12 1018.3 1016.4 0.0
30/12:00pm 18.7 14.9 9.2 54 5.1 SW 19 26 10 14 1018.8 1016.8 0.0
30/11:30am 18.5 14.8 9.3 55 4.9 SW 19 28 10 15 1019.1 1017.2 0.0
30/11:00am 18.4 14.8 9.7 57 4.7 SW 19 24 10 13 1019.4 1017.5 0.0
30/10:30am 17.6 13.3 9.5 59 4.3 SW 22 33 12 18 1019.6 1017.7 0.0
30/10:00am 17.4 13.7 9.3 59 4.3 SW 19 28 10 15 1019.8 1017.9 0.0
30/09:30am 17.1 12.8 9.5 61 4.1 SW 22 30 12 16 1019.7 1017.8 0.0
30/09:00am 16.2 11.9 9.2 63 3.7 SW 22 32 12 17 1019.6 1017.7 0.0
30/08:30am 15.8 11.8 9.0 64 3.6 SW 20 32 11 17 1019.5 1017.6 0.0
30/08:00am 14.5 11.7 8.7 68 3.0 W 13 20 7 11 1019.3 1017.4 0.0
30/07:30am 12.9 10.8 8.4 74 2.3 W 9 13 5 7 1018.8 1016.8 0.0
30/07:00am 10.5 8.8 7.6 82 1.4 WNW 6 7 3 4 1018.2 1016.3 0.0
30/06:30am 9.5 7.7 7.1 85 1.2 WNW 6 7 3 4 1017.9 1016.0 0.0
30/06:00am 9.3 6.9 6.9 85 1.2 WNW 9 11 5 6 1017.7 1015.8 0.0
30/05:30am 9.4 7.3 6.7 83 1.3 WNW 7 9 4 5 1017.5 1015.6 0.0
30/05:00am 9.8 8.4 7.1 83 1.3 WNW 4 6 2 3 1017.3 1015.4 0.0
30/04:30am 10.1 7.7 7.0 81 1.5 WNW 9 11 5 6 1017.1 1015.2 0.0
30/04:00am 10.1 7.7 7.0 81 1.5 WNW 9 9 5 5 1016.8 1014.8 0.0
30/03:30am 9.9 7.7 6.4 79 1.7 NW 7 9 4 5 1016.5 1014.5 0.0
30/03:00am 11.0 9.0 7.3 78 1.8 WNW 7 9 4 5 1016.3 1014.4 0.0
30/02:30am 11.5 9.1 7.2 75 2.1 WNW 9 9 5 5 1016.3 1014.4 0.0
30/02:00am 11.6 9.3 7.3 75 2.1 WNW 9 11 5 6 1016.5 1014.5 0.0
30/01:30am 12.2 9.5 7.5 73 2.3 WNW 11 13 6 7 1016.5 1014.5 0.0
30/01:00am 12.0 9.3 7.3 73 2.3 W 11 13 6 7 1016.3 1014.4 0.0
30/12:30am 12.5 9.8 7.4 71 2.5 WNW 11 13 6 7 1016.2 1014.3 0.0
30/12:00am 12.7 10.0 7.4 70 2.6 WNW 11 11 6 6 1016.3 1014.4 0.0
 
Date/Time
WST
Temp
°C
App
Temp
°C
Dew
Point
Rel
Hum
%
Delta-T
°C
Wind Press
QNH
hPa
Press
MSL
hPa
Rain
since 9 am
mm
Dir
 
Spd
km/h
Gust
km/h
Spd
kts
Gust
kts
29/11:30pm 12.8 10.4 7.0 68 2.9 WNW 9 9 5 5 1016.5 1014.5 0.0
29/11:00pm 13.2 10.7 6.5 64 3.3 W 9 13 5 7 1016.5 1014.5 0.0
29/10:30pm 14.2 11.8 7.0 62 3.6 WSW 9 13 5 7 1016.6 1014.6 0.0
29/10:00pm 14.2 12.1 6.8 61 3.7 WNW 7 9 4 5 1016.6 1014.6 0.0
29/09:30pm 14.8 12.3 6.6 58 4.1 W 9 9 5 5 1016.9 1014.9 0.0
29/09:00pm 14.8 11.9 6.6 58 4.1 WNW 11 11 6 6 1016.8 1014.8 0.0
29/08:30pm 15.5 13.0 6.5 55 4.5 WNW 9 11 5 6 1016.6 1014.6 0.0
29/08:00pm 16.2 13.9 5.8 50 5.1 WNW 7 9 4 5 1016.2 1014.3 0.0
29/07:30pm 17.2 15.0 6.1 48 5.6 WSW 7 7 4 4 1016.1 1014.2 0.0
29/07:00pm 17.6 15.5 5.9 46 5.8 W 6 7 3 4 1015.7 1013.8 0.0
29/06:30pm 18.5 15.8 5.7 43 6.4 W 9 11 5 6 1015.6 1013.7 0.0
29/06:00pm 19.9 16.7 5.2 38 7.4 WNW 11 15 6 8 1015.2 1013.3 0.0
29/05:30pm 21.1 17.1 5.1 35 8.1 WNW 15 19 8 10 1014.9 1012.9 0.0
29/05:00pm 22.1 18.5 5.1 33 8.6 W 13 22 7 12 1014.8 1012.8 0.0
29/04:30pm 23.0 18.4 5.4 32 9.0 WNW 19 28 10 15 1014.8 1012.8 0.0
29/04:00pm 23.2 18.4 5.6 32 9.1 WNW 20 30 11 16 1014.9 1012.9 0.0
29/03:30pm 23.4 18.8 5.8 32 9.1 WNW 19 28 10 15 1015.0 1013.0 0.0
29/03:00pm 23.5 19.7 5.9 32 9.1 W 15 26 8 14 1015.0 1013.0 0.0
29/02:30pm 23.0 19.9 7.1 36 8.4 W 13 20 7 11 1015.1 1013.2 0.0
29/02:00pm 22.7 18.8 6.9 36 8.3 W 17 28 9 15 1015.3 1013.4 0.0
29/01:30pm 22.3 18.4 6.9 37 8.1 WNW 17 26 9 14 1015.4 1013.5 0.0
29/01:00pm 21.1 18.0 7.3 41 7.2 NW 13 26 7 14 1015.8 1013.9 0.0
29/12:30pm 20.8 17.7 7.4 42 7.0 WNW 13 20 7 11 1016.3 1014.4 0.0
29/12:00pm 20.0 17.4 7.7 45 6.5 WNW 11 17 6 9 1016.8 1014.8 0.0
29/11:30am 19.5 16.9 7.9 47 6.1 WSW 11 17 6 9 1017.5 1015.6 0.0
29/11:00am 19.3 17.2 8.3 49 5.8 WNW 9 13 5 7 1018.0 1016.1 0.0
29/10:30am 18.2 16.2 8.5 53 5.1 SW 9 20 5 11 1018.3 1016.4 0.0
29/10:00am 17.5 14.7 8.4 55 4.8 WSW 13 20 7 11 1018.6 1016.7 0.0
29/09:30am 17.1 13.9 8.5 57 4.5 SW 15 22 8 12 1019.0 1017.1 0.0
29/09:00am 16.4 13.6 8.6 60 4.1 SW 13 19 7 10 1019.0 1017.1 0.0
29/08:30am 15.1 12.1 7.9 62 3.7 SW 13 17 7 9 1019.0 1017.1 0.0
29/08:00am 13.3 11.3 6.9 65 3.2 WSW 7 11 4 6 1018.8 1016.8 0.0
29/07:30am 11.9 9.9 6.4 69 2.7 NNW 6 9 3 5 1018.6 1016.7 0.0
29/07:00am 9.1 8.0 5.1 76 1.8 CALM 0 0 0 0 1018.6 1016.7 0.0
29/06:30am 8.0 6.0 4.6 79 1.5 NNW 4 6 2 3 1018.3 1016.4 0.0
29/06:00am 7.2 4.8 4.3 82 1.3 NNW 6 7 3 4 1018.1 1016.2 0.0
29/05:30am 7.2 4.2 4.3 82 1.3 N 9 13 5 7 1017.8 1015.9 0.0
29/05:00am 6.9 3.9 4.2 83 1.2 N 9 11 5 6 1017.7 1015.8 0.0
29/04:30am 7.4 4.5 4.4 81 1.3 N 9 11 5 6 1017.3 1015.4 0.0
29/04:00am 8.0 6.0 4.4 78 1.6 N 4 9 2 5 1017.1 1015.2 0.0
29/03:30am 7.9 4.9 4.3 78 1.6 N 9 11 5 6 1017.2 1015.3 0.0
29/03:00am 7.8 5.4 4.2 78 1.6 N 6 7 3 4 1017.1 1015.2 0.0
29/02:30am 8.3 5.9 4.3 76 1.8 NW 6 7 3 4 1017.0 1015.1 0.0
29/02:00am 8.4 5.8 4.2 75 1.9 NW 7 7 4 4 1017.2 1015.3 0.0
29/01:30am 8.5 5.9 4.1 74 2.0 NW 7 7 4 4 1017.2 1015.3 0.0
29/01:00am 8.9 6.5 4.1 72 2.2 W 6 7 3 4 1017.2 1015.3 0.0
29/12:30am 9.5 7.9 4.3 70 2.4 W 2 6 1 3 1017.1 1015.2 0.0
29/12:00am 10.7 8.3 4.2 64 3.0 W 6 7 3 4 1017.1 1015.2 0.0
 
Date/Time
WST
Temp
°C
App
Temp
°C
Dew
Point
Rel
Hum
%
Delta-T
°C
Wind Press
QNH
hPa
Press
MSL
hPa
Rain
since 9 am
mm
Dir
 
Spd
km/h
Gust
km/h
Spd
kts
Gust
kts
28/11:30pm 10.5 7.5 4.2 65 2.9 W 9 9 5 5 1017.1 1015.2 0.0
28/11:00pm 10.6 7.6 4.1 64 3.0 NW 9 11 5 6 1017.3 1015.4 0.0
28/10:30pm 10.8 7.8 4.3 64 3.0 WNW 9 9 5 5 1017.5 1015.6 0.0
28/10:00pm 11.3 8.3 4.1 61 3.3 WNW 9 9 5 5 1017.6 1015.7 0.0
28/09:30pm 11.8 8.8 4.1 59 3.6 NW 9 9 5 5 1017.6 1015.7 0.0
28/09:00pm 12.3 9.3 4.3 58 3.7 NW 9 11 5 6 1017.4 1015.5 0.0
28/08:30pm 12.3 9.4 4.5 59 3.6 NW 9 11 5 6 1017.3 1015.4 0.0
28/08:00pm 13.0 10.4 4.2 55 4.1 WNW 7 7 4 4 1017.2 1015.3 0.0
28/07:30pm 13.5 10.6 4.4 54 4.3 W 9 11 5 6 1016.9 1014.9 0.0
28/07:00pm 14.4 11.5 4.4 51 4.7 WNW 9 11 5 6 1016.2 1014.3 0.0
28/06:30pm 14.9 12.0 4.6 50 4.9 W 9 11 5 6 1016.2 1014.3 0.0
28/06:00pm 15.8 12.5 4.5 47 5.4 WSW 11 13 6 7 1015.7 1013.8 0.0
28/05:30pm 17.2 13.5 4.2 42 6.3 W 13 17 7 9 1015.4 1013.5 0.0
28/05:00pm 18.3 14.2 4.1 39 6.9 W 15 20 8 11 1015.3 1013.4 0.0
28/04:30pm 18.4 14.3 4.2 39 6.9 W 15 20 8 11 1015.2 1013.3 0.0

Other Formats:

Comma delimited format used in spreadsheet applications
http://www.bom.gov.au/fwo/IDW60801/IDW60801.94449.axf

JavaScript Object Notation format (JSON) in row-major order
http://www.bom.gov.au/fwo/IDW60801/IDW60801.94449.json